sensor_id;sensor_type;location;lat;lon;timestamp;P1;durP1;ratioP1;P2;durP2;ratioP2
15655;SDS011;7928;43.614;1.456;2022-12-07T00:01:39;15.87;;;12.07;;
15655;SDS011;7928;43.614;1.456;2022-12-07T00:04:09;17.57;;;12.47;;
15655;SDS011;7928;43.614;1.456;2022-12-07T00:06:38;15.50;;;12.07;;
15655;SDS011;7928;43.614;1.456;2022-12-07T00:09:09;15.93;;;11.17;;
15655;SDS011;7928;43.614;1.456;2022-12-07T00:11:37;14.80;;;10.87;;
15655;SDS011;7928;43.614;1.456;2022-12-07T00:14:05;16.03;;;11.23;;
15655;SDS011;7928;43.614;1.456;2022-12-07T00:16:33;15.53;;;11.87;;
15655;SDS011;7928;43.614;1.456;2022-12-07T00:19:02;17.10;;;12.90;;
15655;SDS011;7928;43.614;1.456;2022-12-07T00:21:30;16.37;;;12.53;;
15655;SDS011;7928;43.614;1.456;2022-12-07T00:23:58;14.73;;;12.37;;
15655;SDS011;7928;43.614;1.456;2022-12-07T00:26:28;17.80;;;12.20;;
15655;SDS011;7928;43.614;1.456;2022-12-07T00:28:57;19.50;;;12.13;;
15655;SDS011;7928;43.614;1.456;2022-12-07T00:31:26;14.13;;;11.87;;
15655;SDS011;7928;43.614;1.456;2022-12-07T00:33:54;17.17;;;11.53;;
15655;SDS011;7928;43.614;1.456;2022-12-07T00:36:22;17.30;;;11.07;;
15655;SDS011;7928;43.614;1.456;2022-12-07T00:38:50;17.00;;;11.10;;
15655;SDS011;7928;43.614;1.456;2022-12-07T00:41:18;15.23;;;11.13;;
15655;SDS011;7928;43.614;1.456;2022-12-07T00:43:48;18.27;;;11.87;;
15655;SDS011;7928;43.614;1.456;2022-12-07T00:46:16;18.67;;;11.60;;
15655;SDS011;7928;43.614;1.456;2022-12-07T00:48:43;16.33;;;12.70;;
15655;SDS011;7928;43.614;1.456;2022-12-07T00:51:11;17.37;;;13.10;;
15655;SDS011;7928;43.614;1.456;2022-12-07T00:53:40;15.87;;;13.03;;
15655;SDS011;7928;43.614;1.456;2022-12-07T00:56:07;16.63;;;13.63;;
15655;SDS011;7928;43.614;1.456;2022-12-07T00:58:34;19.53;;;13.60;;
15655;SDS011;7928;43.614;1.456;2022-12-07T01:01:03;17.50;;;13.60;;
15655;SDS011;7928;43.614;1.456;2022-12-07T01:03:31;18.13;;;14.40;;
15655;SDS011;7928;43.614;1.456;2022-12-07T01:05:59;20.63;;;14.67;;
15655;SDS011;7928;43.614;1.456;2022-12-07T01:08:27;18.80;;;14.40;;
15655;SDS011;7928;43.614;1.456;2022-12-07T01:11:09;19.60;;;15.03;;
15655;SDS011;7928;43.614;1.456;2022-12-07T01:13:38;21.73;;;14.43;;
15655;SDS011;7928;43.614;1.456;2022-12-07T01:16:07;17.97;;;14.27;;
15655;SDS011;7928;43.614;1.456;2022-12-07T01:18:35;19.53;;;14.70;;
15655;SDS011;7928;43.614;1.456;2022-12-07T01:21:03;18.77;;;14.17;;
15655;SDS011;7928;43.614;1.456;2022-12-07T01:23:32;18.43;;;14.43;;
15655;SDS011;7928;43.614;1.456;2022-12-07T01:26:01;19.20;;;14.50;;
15655;SDS011;7928;43.614;1.456;2022-12-07T01:28:30;21.73;;;15.50;;
15655;SDS011;7928;43.614;1.456;2022-12-07T01:30:57;26.97;;;16.47;;
15655;SDS011;7928;43.614;1.456;2022-12-07T01:33:27;19.70;;;14.87;;
15655;SDS011;7928;43.614;1.456;2022-12-07T01:35:59;18.83;;;15.57;;
15655;SDS011;7928;43.614;1.456;2022-12-07T01:38:27;23.60;;;16.97;;
15655;SDS011;7928;43.614;1.456;2022-12-07T01:40:56;20.17;;;15.60;;
15655;SDS011;7928;43.614;1.456;2022-12-07T01:43:24;20.53;;;15.73;;
15655;SDS011;7928;43.614;1.456;2022-12-07T01:45:53;19.87;;;15.33;;
15655;SDS011;7928;43.614;1.456;2022-12-07T01:48:21;21.53;;;16.07;;
15655;SDS011;7928;43.614;1.456;2022-12-07T01:50:52;20.63;;;15.53;;
15655;SDS011;7928;43.614;1.456;2022-12-07T01:53:20;24.83;;;16.97;;
15655;SDS011;7928;43.614;1.456;2022-12-07T01:55:51;22.37;;;16.23;;
15655;SDS011;7928;43.614;1.456;2022-12-07T01:58:19;19.70;;;15.97;;
15655;SDS011;7928;43.614;1.456;2022-12-07T02:00:47;22.47;;;17.00;;
15655;SDS011;7928;43.614;1.456;2022-12-07T02:03:15;22.87;;;17.23;;
15655;SDS011;7928;43.614;1.456;2022-12-07T02:05:45;26.53;;;17.53;;
15655;SDS011;7928;43.614;1.456;2022-12-07T02:08:15;22.20;;;17.20;;
15655;SDS011;7928;43.614;1.456;2022-12-07T02:10:43;25.10;;;18.93;;
15655;SDS011;7928;43.614;1.456;2022-12-07T02:13:11;22.63;;;18.47;;
15655;SDS011;7928;43.614;1.456;2022-12-07T02:15:45;22.83;;;18.23;;
15655;SDS011;7928;43.614;1.456;2022-12-07T02:18:30;24.80;;;18.77;;
15655;SDS011;7928;43.614;1.456;2022-12-07T02:21:09;24.83;;;18.40;;
15655;SDS011;7928;43.614;1.456;2022-12-07T02:23:48;24.17;;;19.30;;
15655;SDS011;7928;43.614;1.456;2022-12-07T02:26:44;22.53;;;18.13;;
15655;SDS011;7928;43.614;1.456;2022-12-07T02:29:35;21.70;;;18.17;;
15655;SDS011;7928;43.614;1.456;2022-12-07T02:32:07;24.23;;;18.63;;
15655;SDS011;7928;43.614;1.456;2022-12-07T02:34:41;22.83;;;18.57;;
15655;SDS011;7928;43.614;1.456;2022-12-07T02:37:16;26.83;;;19.90;;
15655;SDS011;7928;43.614;1.456;2022-12-07T02:39:49;23.17;;;18.63;;
15655;SDS011;7928;43.614;1.456;2022-12-07T02:42:26;25.87;;;19.33;;
15655;SDS011;7928;43.614;1.456;2022-12-07T02:45:00;22.07;;;18.00;;
15655;SDS011;7928;43.614;1.456;2022-12-07T02:47:28;24.53;;;19.30;;
15655;SDS011;7928;43.614;1.456;2022-12-07T02:49:58;24.47;;;18.50;;
15655;SDS011;7928;43.614;1.456;2022-12-07T02:52:25;25.83;;;19.10;;
15655;SDS011;7928;43.614;1.456;2022-12-07T02:54:52;24.63;;;18.53;;
15655;SDS011;7928;43.614;1.456;2022-12-07T02:57:25;20.60;;;16.27;;
15655;SDS011;7928;43.614;1.456;2022-12-07T03:00:04;23.17;;;15.83;;
15655;SDS011;7928;43.614;1.456;2022-12-07T03:02:39;28.17;;;18.87;;
15655;SDS011;7928;43.614;1.456;2022-12-07T03:05:21;24.23;;;18.33;;
15655;SDS011;7928;43.614;1.456;2022-12-07T03:08:05;27.57;;;18.93;;
15655;SDS011;7928;43.614;1.456;2022-12-07T03:10:41;24.50;;;18.37;;
15655;SDS011;7928;43.614;1.456;2022-12-07T03:13:19;23.70;;;16.83;;
15655;SDS011;7928;43.614;1.456;2022-12-07T03:15:53;23.70;;;17.47;;
15655;SDS011;7928;43.614;1.456;2022-12-07T03:18:24;21.50;;;16.27;;
15655;SDS011;7928;43.614;1.456;2022-12-07T03:20:55;23.37;;;16.70;;
15655;SDS011;7928;43.614;1.456;2022-12-07T03:23:26;22.50;;;17.73;;
15655;SDS011;7928;43.614;1.456;2022-12-07T03:25:56;24.10;;;18.53;;
15655;SDS011;7928;43.614;1.456;2022-12-07T03:28:26;22.53;;;17.17;;
15655;SDS011;7928;43.614;1.456;2022-12-07T03:30:59;23.03;;;18.17;;
15655;SDS011;7928;43.614;1.456;2022-12-07T03:33:30;23.00;;;17.53;;
15655;SDS011;7928;43.614;1.456;2022-12-07T03:36:00;21.27;;;16.80;;
15655;SDS011;7928;43.614;1.456;2022-12-07T03:38:31;25.83;;;17.57;;
15655;SDS011;7928;43.614;1.456;2022-12-07T03:41:03;23.73;;;17.87;;
15655;SDS011;7928;43.614;1.456;2022-12-07T03:43:33;20.57;;;16.90;;
15655;SDS011;7928;43.614;1.456;2022-12-07T03:46:04;22.43;;;17.17;;
15655;SDS011;7928;43.614;1.456;2022-12-07T03:48:42;25.70;;;18.47;;
15655;SDS011;7928;43.614;1.456;2022-12-07T03:51:18;22.27;;;17.43;;
15655;SDS011;7928;43.614;1.456;2022-12-07T03:53:50;23.93;;;16.37;;
15655;SDS011;7928;43.614;1.456;2022-12-07T03:56:21;26.00;;;17.37;;
15655;SDS011;7928;43.614;1.456;2022-12-07T03:58:49;25.77;;;17.63;;
15655;SDS011;7928;43.614;1.456;2022-12-07T04:01:19;26.27;;;18.97;;
15655;SDS011;7928;43.614;1.456;2022-12-07T04:03:48;24.13;;;18.83;;
15655;SDS011;7928;43.614;1.456;2022-12-07T04:06:15;22.13;;;18.63;;
15655;SDS011;7928;43.614;1.456;2022-12-07T04:08:42;24.30;;;19.87;;
15655;SDS011;7928;43.614;1.456;2022-12-07T04:11:09;24.13;;;19.57;;
15655;SDS011;7928;43.614;1.456;2022-12-07T04:13:37;26.00;;;19.97;;
15655;SDS011;7928;43.614;1.456;2022-12-07T04:16:17;28.30;;;20.50;;
15655;SDS011;7928;43.614;1.456;2022-12-07T04:18:46;25.00;;;19.77;;
15655;SDS011;7928;43.614;1.456;2022-12-07T04:21:13;28.13;;;20.77;;
15655;SDS011;7928;43.614;1.456;2022-12-07T04:23:40;26.97;;;20.73;;
15655;SDS011;7928;43.614;1.456;2022-12-07T04:26:07;26.90;;;20.73;;
15655;SDS011;7928;43.614;1.456;2022-12-07T04:28:34;27.57;;;21.67;;
15655;SDS011;7928;43.614;1.456;2022-12-07T04:31:01;24.97;;;20.07;;
15655;SDS011;7928;43.614;1.456;2022-12-07T04:33:29;28.57;;;20.77;;
15655;SDS011;7928;43.614;1.456;2022-12-07T04:35:56;25.30;;;19.43;;
15655;SDS011;7928;43.614;1.456;2022-12-07T04:38:23;28.03;;;22.27;;
15655;SDS011;7928;43.614;1.456;2022-12-07T04:40:51;29.50;;;22.70;;
15655;SDS011;7928;43.614;1.456;2022-12-07T04:43:18;27.53;;;20.93;;
15655;SDS011;7928;43.614;1.456;2022-12-07T04:45:45;28.87;;;21.80;;
15655;SDS011;7928;43.614;1.456;2022-12-07T04:48:13;28.50;;;21.57;;
15655;SDS011;7928;43.614;1.456;2022-12-07T04:50:41;27.37;;;20.57;;
15655;SDS011;7928;43.614;1.456;2022-12-07T04:53:08;28.47;;;21.40;;
15655;SDS011;7928;43.614;1.456;2022-12-07T04:55:36;31.20;;;22.23;;
15655;SDS011;7928;43.614;1.456;2022-12-07T04:58:03;26.90;;;21.57;;
15655;SDS011;7928;43.614;1.456;2022-12-07T05:00:30;27.80;;;21.23;;
15655;SDS011;7928;43.614;1.456;2022-12-07T05:02:57;28.50;;;22.00;;
15655;SDS011;7928;43.614;1.456;2022-12-07T05:05:24;29.43;;;22.23;;
15655;SDS011;7928;43.614;1.456;2022-12-07T05:07:52;31.23;;;22.07;;
15655;SDS011;7928;43.614;1.456;2022-12-07T05:10:20;30.07;;;21.60;;
15655;SDS011;7928;43.614;1.456;2022-12-07T05:12:47;27.30;;;20.53;;
15655;SDS011;7928;43.614;1.456;2022-12-07T05:15:14;29.77;;;21.47;;
15655;SDS011;7928;43.614;1.456;2022-12-07T05:17:41;30.40;;;22.13;;
15655;SDS011;7928;43.614;1.456;2022-12-07T05:20:09;27.37;;;20.57;;
15655;SDS011;7928;43.614;1.456;2022-12-07T05:22:36;31.50;;;22.37;;
15655;SDS011;7928;43.614;1.456;2022-12-07T05:25:05;28.33;;;22.37;;
15655;SDS011;7928;43.614;1.456;2022-12-07T05:27:32;27.63;;;22.53;;
15655;SDS011;7928;43.614;1.456;2022-12-07T05:29:59;29.57;;;23.03;;
15655;SDS011;7928;43.614;1.456;2022-12-07T05:32:27;28.53;;;21.40;;
15655;SDS011;7928;43.614;1.456;2022-12-07T05:34:54;30.07;;;21.77;;
15655;SDS011;7928;43.614;1.456;2022-12-07T05:37:21;29.77;;;21.83;;
15655;SDS011;7928;43.614;1.456;2022-12-07T05:39:48;27.77;;;21.57;;
15655;SDS011;7928;43.614;1.456;2022-12-07T05:42:16;29.77;;;23.47;;
15655;SDS011;7928;43.614;1.456;2022-12-07T05:44:43;32.10;;;23.87;;
15655;SDS011;7928;43.614;1.456;2022-12-07T05:47:11;28.63;;;22.70;;
15655;SDS011;7928;43.614;1.456;2022-12-07T05:49:38;28.17;;;21.20;;
15655;SDS011;7928;43.614;1.456;2022-12-07T05:52:06;27.20;;;20.83;;
15655;SDS011;7928;43.614;1.456;2022-12-07T05:54:33;27.17;;;22.13;;
15655;SDS011;7928;43.614;1.456;2022-12-07T05:57:00;28.07;;;21.57;;
15655;SDS011;7928;43.614;1.456;2022-12-07T05:59:29;29.63;;;21.70;;
15655;SDS011;7928;43.614;1.456;2022-12-07T06:01:55;30.20;;;21.27;;
15655;SDS011;7928;43.614;1.456;2022-12-07T06:04:24;27.33;;;21.20;;
15655;SDS011;7928;43.614;1.456;2022-12-07T06:06:52;24.47;;;20.10;;
15655;SDS011;7928;43.614;1.456;2022-12-07T06:09:19;30.80;;;22.60;;
15655;SDS011;7928;43.614;1.456;2022-12-07T06:11:47;28.97;;;21.37;;
15655;SDS011;7928;43.614;1.456;2022-12-07T06:14:33;25.13;;;19.70;;
15655;SDS011;7928;43.614;1.456;2022-12-07T06:17:01;28.53;;;21.53;;
15655;SDS011;7928;43.614;1.456;2022-12-07T06:19:28;30.40;;;22.33;;
15655;SDS011;7928;43.614;1.456;2022-12-07T06:21:55;29.77;;;22.30;;
15655;SDS011;7928;43.614;1.456;2022-12-07T06:24:22;28.80;;;21.60;;
15655;SDS011;7928;43.614;1.456;2022-12-07T06:26:49;28.73;;;21.87;;
15655;SDS011;7928;43.614;1.456;2022-12-07T06:29:17;27.87;;;20.33;;
15655;SDS011;7928;43.614;1.456;2022-12-07T06:31:46;26.17;;;19.60;;
15655;SDS011;7928;43.614;1.456;2022-12-07T06:34:14;24.47;;;20.30;;
15655;SDS011;7928;43.614;1.456;2022-12-07T06:36:43;24.67;;;20.23;;
15655;SDS011;7928;43.614;1.456;2022-12-07T06:39:10;27.80;;;21.37;;
15655;SDS011;7928;43.614;1.456;2022-12-07T06:41:38;26.87;;;21.80;;
15655;SDS011;7928;43.614;1.456;2022-12-07T06:44:05;25.23;;;21.30;;
15655;SDS011;7928;43.614;1.456;2022-12-07T06:46:33;27.73;;;22.23;;
15655;SDS011;7928;43.614;1.456;2022-12-07T06:49:02;27.80;;;21.57;;
15655;SDS011;7928;43.614;1.456;2022-12-07T06:51:30;28.67;;;20.60;;
15655;SDS011;7928;43.614;1.456;2022-12-07T06:53:58;24.70;;;21.63;;
15655;SDS011;7928;43.614;1.456;2022-12-07T06:56:25;28.37;;;21.67;;
15655;SDS011;7928;43.614;1.456;2022-12-07T06:58:53;26.43;;;21.57;;
15655;SDS011;7928;43.614;1.456;2022-12-07T07:01:20;27.60;;;21.37;;
15655;SDS011;7928;43.614;1.456;2022-12-07T07:03:47;29.93;;;21.57;;
15655;SDS011;7928;43.614;1.456;2022-12-07T07:06:16;27.53;;;20.30;;
15655;SDS011;7928;43.614;1.456;2022-12-07T07:08:43;26.73;;;20.90;;
15655;SDS011;7928;43.614;1.456;2022-12-07T07:11:10;28.10;;;20.80;;
15655;SDS011;7928;43.614;1.456;2022-12-07T07:13:37;28.53;;;20.83;;
15655;SDS011;7928;43.614;1.456;2022-12-07T07:16:05;25.63;;;19.93;;
15655;SDS011;7928;43.614;1.456;2022-12-07T07:18:33;26.00;;;19.50;;
15655;SDS011;7928;43.614;1.456;2022-12-07T07:21:00;27.27;;;20.53;;
15655;SDS011;7928;43.614;1.456;2022-12-07T07:23:28;27.67;;;20.87;;
15655;SDS011;7928;43.614;1.456;2022-12-07T07:25:56;26.50;;;19.47;;
15655;SDS011;7928;43.614;1.456;2022-12-07T07:28:23;28.70;;;19.73;;
15655;SDS011;7928;43.614;1.456;2022-12-07T07:30:50;23.73;;;19.90;;
15655;SDS011;7928;43.614;1.456;2022-12-07T07:33:17;24.50;;;19.60;;
15655;SDS011;7928;43.614;1.456;2022-12-07T07:35:44;28.83;;;21.13;;
15655;SDS011;7928;43.614;1.456;2022-12-07T07:38:11;23.47;;;19.33;;
15655;SDS011;7928;43.614;1.456;2022-12-07T07:40:40;24.87;;;20.50;;
15655;SDS011;7928;43.614;1.456;2022-12-07T07:43:07;26.00;;;21.17;;
15655;SDS011;7928;43.614;1.456;2022-12-07T07:45:34;26.10;;;21.10;;
15655;SDS011;7928;43.614;1.456;2022-12-07T07:48:01;29.10;;;21.77;;
15655;SDS011;7928;43.614;1.456;2022-12-07T07:50:28;28.17;;;20.60;;
15655;SDS011;7928;43.614;1.456;2022-12-07T07:52:56;31.87;;;21.60;;
15655;SDS011;7928;43.614;1.456;2022-12-07T07:55:23;28.63;;;20.67;;
15655;SDS011;7928;43.614;1.456;2022-12-07T07:57:52;29.47;;;21.47;;
15655;SDS011;7928;43.614;1.456;2022-12-07T08:00:20;25.17;;;21.73;;
15655;SDS011;7928;43.614;1.456;2022-12-07T08:02:48;25.90;;;20.93;;
15655;SDS011;7928;43.614;1.456;2022-12-07T08:05:15;35.53;;;21.90;;
15655;SDS011;7928;43.614;1.456;2022-12-07T08:07:42;27.30;;;21.23;;
15655;SDS011;7928;43.614;1.456;2022-12-07T08:10:10;30.80;;;22.60;;
15655;SDS011;7928;43.614;1.456;2022-12-07T08:12:38;32.40;;;23.00;;
15655;SDS011;7928;43.614;1.456;2022-12-07T08:15:22;30.40;;;23.83;;
15655;SDS011;7928;43.614;1.456;2022-12-07T08:17:49;30.83;;;22.27;;
15655;SDS011;7928;43.614;1.456;2022-12-07T08:20:16;30.20;;;22.40;;
15655;SDS011;7928;43.614;1.456;2022-12-07T08:22:43;28.47;;;23.00;;
15655;SDS011;7928;43.614;1.456;2022-12-07T08:25:10;28.53;;;22.17;;
15655;SDS011;7928;43.614;1.456;2022-12-07T08:27:37;28.73;;;21.90;;
15655;SDS011;7928;43.614;1.456;2022-12-07T08:30:05;23.97;;;20.00;;
15655;SDS011;7928;43.614;1.456;2022-12-07T08:32:34;33.10;;;22.37;;
15655;SDS011;7928;43.614;1.456;2022-12-07T08:35:01;28.60;;;21.83;;
15655;SDS011;7928;43.614;1.456;2022-12-07T08:37:28;35.57;;;21.13;;
15655;SDS011;7928;43.614;1.456;2022-12-07T08:39:55;27.83;;;20.50;;
15655;SDS011;7928;43.614;1.456;2022-12-07T08:42:22;32.60;;;20.60;;
15655;SDS011;7928;43.614;1.456;2022-12-07T08:44:54;26.13;;;21.43;;
15655;SDS011;7928;43.614;1.456;2022-12-07T08:47:21;30.03;;;19.47;;
15655;SDS011;7928;43.614;1.456;2022-12-07T08:49:51;28.50;;;18.20;;
15655;SDS011;7928;43.614;1.456;2022-12-07T08:52:19;22.07;;;18.30;;
15655;SDS011;7928;43.614;1.456;2022-12-07T08:54:47;25.80;;;19.10;;
15655;SDS011;7928;43.614;1.456;2022-12-07T08:57:14;26.20;;;18.53;;
15655;SDS011;7928;43.614;1.456;2022-12-07T08:59:41;25.43;;;18.37;;
15655;SDS011;7928;43.614;1.456;2022-12-07T09:02:08;22.43;;;17.77;;
15655;SDS011;7928;43.614;1.456;2022-12-07T09:04:35;25.90;;;19.20;;
15655;SDS011;7928;43.614;1.456;2022-12-07T09:07:03;23.00;;;17.97;;
15655;SDS011;7928;43.614;1.456;2022-12-07T09:09:31;22.17;;;17.40;;
15655;SDS011;7928;43.614;1.456;2022-12-07T09:11:58;23.33;;;17.73;;
15655;SDS011;7928;43.614;1.456;2022-12-07T09:14:25;21.03;;;16.57;;
15655;SDS011;7928;43.614;1.456;2022-12-07T09:16:52;30.47;;;17.30;;
15655;SDS011;7928;43.614;1.456;2022-12-07T09:19:19;18.73;;;15.03;;
15655;SDS011;7928;43.614;1.456;2022-12-07T09:21:46;20.90;;;15.67;;
15655;SDS011;7928;43.614;1.456;2022-12-07T09:24:15;20.27;;;14.60;;
15655;SDS011;7928;43.614;1.456;2022-12-07T09:26:42;17.20;;;14.97;;
15655;SDS011;7928;43.614;1.456;2022-12-07T09:29:09;18.23;;;14.93;;
15655;SDS011;7928;43.614;1.456;2022-12-07T09:31:36;17.93;;;14.93;;
15655;SDS011;7928;43.614;1.456;2022-12-07T09:34:04;17.10;;;14.73;;
15655;SDS011;7928;43.614;1.456;2022-12-07T09:36:32;17.77;;;14.00;;
15655;SDS011;7928;43.614;1.456;2022-12-07T09:38:59;17.63;;;14.70;;
15655;SDS011;7928;43.614;1.456;2022-12-07T09:41:29;17.97;;;14.93;;
15655;SDS011;7928;43.614;1.456;2022-12-07T09:43:58;17.73;;;13.77;;
15655;SDS011;7928;43.614;1.456;2022-12-07T09:46:32;17.10;;;15.03;;
15655;SDS011;7928;43.614;1.456;2022-12-07T09:49:02;19.43;;;15.83;;
15655;SDS011;7928;43.614;1.456;2022-12-07T09:51:30;17.60;;;14.30;;
15655;SDS011;7928;43.614;1.456;2022-12-07T09:53:58;16.53;;;13.13;;
15655;SDS011;7928;43.614;1.456;2022-12-07T09:56:25;13.00;;;11.60;;
15655;SDS011;7928;43.614;1.456;2022-12-07T09:58:58;14.70;;;11.33;;
15655;SDS011;7928;43.614;1.456;2022-12-07T10:01:30;27.40;;;23.43;;
15655;SDS011;7928;43.614;1.456;2022-12-07T10:04:05;12.57;;;11.27;;
15655;SDS011;7928;43.614;1.456;2022-12-07T10:06:37;13.33;;;11.83;;
15655;SDS011;7928;43.614;1.456;2022-12-07T10:09:08;13.67;;;12.03;;
15655;SDS011;7928;43.614;1.456;2022-12-07T10:14:27;11.87;;;10.73;;
15655;SDS011;7928;43.614;1.456;2022-12-07T10:16:55;11.27;;;10.07;;
15655;SDS011;7928;43.614;1.456;2022-12-07T10:19:24;12.23;;;11.03;;
15655;SDS011;7928;43.614;1.456;2022-12-07T10:21:59;12.67;;;10.67;;
15655;SDS011;7928;43.614;1.456;2022-12-07T10:24:32;12.07;;;10.80;;
15655;SDS011;7928;43.614;1.456;2022-12-07T10:27:00;11.57;;;10.47;;
15655;SDS011;7928;43.614;1.456;2022-12-07T10:29:28;11.83;;;10.67;;
15655;SDS011;7928;43.614;1.456;2022-12-07T10:31:58;13.33;;;12.00;;
15655;SDS011;7928;43.614;1.456;2022-12-07T10:34:27;12.13;;;11.00;;
15655;SDS011;7928;43.614;1.456;2022-12-07T10:39:43;11.03;;;9.90;;
15655;SDS011;7928;43.614;1.456;2022-12-07T10:42:19;10.85;;;9.82;;
15655;SDS011;7928;43.614;1.456;2022-12-07T10:44:47;11.18;;;9.52;;
15655;SDS011;7928;43.614;1.456;2022-12-07T10:47:26;10.90;;;9.07;;
15655;SDS011;7928;43.614;1.456;2022-12-07T10:50:06;8.55;;;7.60;;
15655;SDS011;7928;43.614;1.456;2022-12-07T10:55:56;9.93;;;8.93;;
15655;SDS011;7928;43.614;1.456;2022-12-07T10:58:48;8.77;;;7.97;;
15655;SDS011;7928;43.614;1.456;2022-12-07T11:01:27;9.30;;;8.35;;
15655;SDS011;7928;43.614;1.456;2022-12-07T11:04:03;10.05;;;9.15;;
15655;SDS011;7928;43.614;1.456;2022-12-07T11:06:46;10.90;;;9.80;;
15655;SDS011;7928;43.614;1.456;2022-12-07T11:09:25;10.70;;;9.05;;
15655;SDS011;7928;43.614;1.456;2022-12-07T11:12:13;9.63;;;7.70;;
15655;SDS011;7928;43.614;1.456;2022-12-07T11:14:53;9.95;;;8.20;;
15655;SDS011;7928;43.614;1.456;2022-12-07T11:17:24;8.93;;;8.02;;
15655;SDS011;7928;43.614;1.456;2022-12-07T11:20:02;10.23;;;7.50;;
15655;SDS011;7928;43.614;1.456;2022-12-07T11:22:40;8.13;;;7.43;;
15655;SDS011;7928;43.614;1.456;2022-12-07T11:25:19;10.13;;;8.50;;
15655;SDS011;7928;43.614;1.456;2022-12-07T11:27:55;9.23;;;8.35;;
15655;SDS011;7928;43.614;1.456;2022-12-07T11:30:38;10.15;;;9.15;;
15655;SDS011;7928;43.614;1.456;2022-12-07T11:33:11;9.27;;;8.43;;
15655;SDS011;7928;43.614;1.456;2022-12-07T11:35:54;10.98;;;9.32;;
15655;SDS011;7928;43.614;1.456;2022-12-07T11:38:33;10.18;;;9.18;;
15655;SDS011;7928;43.614;1.456;2022-12-07T11:41:08;10.27;;;8.65;;
15655;SDS011;7928;43.614;1.456;2022-12-07T11:43:52;10.80;;;9.80;;
15655;SDS011;7928;43.614;1.456;2022-12-07T11:46:24;10.35;;;9.35;;
15655;SDS011;7928;43.614;1.456;2022-12-07T11:48:55;9.30;;;8.40;;
15655;SDS011;7928;43.614;1.456;2022-12-07T11:51:28;9.20;;;8.30;;
15655;SDS011;7928;43.614;1.456;2022-12-07T11:54:01;10.27;;;8.50;;
15655;SDS011;7928;43.614;1.456;2022-12-07T11:56:31;10.32;;;8.52;;
15655;SDS011;7928;43.614;1.456;2022-12-07T11:59:04;9.23;;;8.43;;
15655;SDS011;7928;43.614;1.456;2022-12-07T12:01:42;9.43;;;8.52;;
15655;SDS011;7928;43.614;1.456;2022-12-07T12:04:20;9.38;;;8.05;;
15655;SDS011;7928;43.614;1.456;2022-12-07T12:07:01;8.40;;;7.70;;
15655;SDS011;7928;43.614;1.456;2022-12-07T12:09:32;9.60;;;8.60;;
15655;SDS011;7928;43.614;1.456;2022-12-07T12:15:13;11.63;;;9.90;;
15655;SDS011;7928;43.614;1.456;2022-12-07T12:18:03;10.63;;;9.63;;
15655;SDS011;7928;43.614;1.456;2022-12-07T12:20:45;11.00;;;9.88;;
15655;SDS011;7928;43.614;1.456;2022-12-07T12:23:17;11.40;;;10.27;;
15655;SDS011;7928;43.614;1.456;2022-12-07T12:25:47;10.98;;;9.60;;
15655;SDS011;7928;43.614;1.456;2022-12-07T12:28:19;10.77;;;9.43;;
15655;SDS011;7928;43.614;1.456;2022-12-07T12:31:04;12.45;;;9.57;;
15655;SDS011;7928;43.614;1.456;2022-12-07T12:33:35;11.80;;;9.50;;
15655;SDS011;7928;43.614;1.456;2022-12-07T12:36:21;10.70;;;9.60;;
15655;SDS011;7928;43.614;1.456;2022-12-07T12:38:52;13.52;;;9.10;;
15655;SDS011;7928;43.614;1.456;2022-12-07T12:41:57;11.60;;;9.10;;
15655;SDS011;7928;43.614;1.456;2022-12-07T12:44:40;10.75;;;8.70;;
15655;SDS011;7928;43.614;1.456;2022-12-07T12:47:39;8.05;;;7.25;;
15655;SDS011;7928;43.614;1.456;2022-12-07T12:50:24;9.48;;;7.93;;
15655;SDS011;7928;43.614;1.456;2022-12-07T12:52:54;8.98;;;8.07;;
15655;SDS011;7928;43.614;1.456;2022-12-07T12:58:35;7.68;;;6.97;;
15655;SDS011;7928;43.614;1.456;2022-12-07T13:01:33;11.45;;;9.00;;
15655;SDS011;7928;43.614;1.456;2022-12-07T13:04:27;9.52;;;7.47;;
15655;SDS011;7928;43.614;1.456;2022-12-07T13:07:47;7.68;;;6.88;;
15655;SDS011;7928;43.614;1.456;2022-12-07T13:10:24;7.68;;;6.50;;
15655;SDS011;7928;43.614;1.456;2022-12-07T13:25:31;7.22;;;5.75;;
15655;SDS011;7928;43.614;1.456;2022-12-07T13:28:08;6.53;;;5.90;;
15655;SDS011;7928;43.614;1.456;2022-12-07T13:30:42;6.38;;;5.47;;
15655;SDS011;7928;43.614;1.456;2022-12-07T13:33:13;5.25;;;4.38;;
15655;SDS011;7928;43.614;1.456;2022-12-07T13:35:43;6.57;;;5.05;;
15655;SDS011;7928;43.614;1.456;2022-12-07T13:38:22;4.97;;;4.50;;
15655;SDS011;7928;43.614;1.456;2022-12-07T13:41:01;4.50;;;4.10;;
15655;SDS011;7928;43.614;1.456;2022-12-07T13:43:47;5.18;;;4.38;;
15655;SDS011;7928;43.614;1.456;2022-12-07T13:46:17;5.22;;;4.25;;
15655;SDS011;7928;43.614;1.456;2022-12-07T13:48:47;4.68;;;4.20;;
15655;SDS011;7928;43.614;1.456;2022-12-07T13:51:20;7.00;;;4.68;;
15655;SDS011;7928;43.614;1.456;2022-12-07T13:53:50;5.40;;;4.50;;
15655;SDS011;7928;43.614;1.456;2022-12-07T13:56:20;5.60;;;4.32;;
15655;SDS011;7928;43.614;1.456;2022-12-07T13:58:48;7.65;;;5.55;;
15655;SDS011;7928;43.614;1.456;2022-12-07T14:01:16;6.38;;;5.80;;
15655;SDS011;7928;43.614;1.456;2022-12-07T14:03:43;5.97;;;5.15;;
15655;SDS011;7928;43.614;1.456;2022-12-07T14:06:14;7.32;;;5.55;;
15655;SDS011;7928;43.614;1.456;2022-12-07T14:08:52;6.60;;;5.93;;
15655;SDS011;7928;43.614;1.456;2022-12-07T14:11:42;8.23;;;5.57;;
15655;SDS011;7928;43.614;1.456;2022-12-07T14:14:10;6.30;;;5.63;;
15655;SDS011;7928;43.614;1.456;2022-12-07T14:16:43;8.45;;;6.38;;
15655;SDS011;7928;43.614;1.456;2022-12-07T14:25:20;9.00;;;7.25;;
15655;SDS011;7928;43.614;1.456;2022-12-07T14:27:50;8.52;;;7.60;;
15655;SDS011;7928;43.614;1.456;2022-12-07T14:30:21;8.48;;;7.75;;
15655;SDS011;7928;43.614;1.456;2022-12-07T14:32:50;14.95;;;11.20;;
15655;SDS011;7928;43.614;1.456;2022-12-07T14:35:19;8.93;;;8.02;;
15655;SDS011;7928;43.614;1.456;2022-12-07T14:37:47;9.23;;;8.13;;
15655;SDS011;7928;43.614;1.456;2022-12-07T14:40:16;10.32;;;7.63;;
15655;SDS011;7928;43.614;1.456;2022-12-07T14:42:45;8.40;;;7.60;;
15655;SDS011;7928;43.614;1.456;2022-12-07T14:45:15;8.10;;;7.28;;
15655;SDS011;7928;43.614;1.456;2022-12-07T14:47:43;8.05;;;6.80;;
15655;SDS011;7928;43.614;1.456;2022-12-07T14:50:11;8.75;;;7.82;;
15655;SDS011;7928;43.614;1.456;2022-12-07T14:52:39;8.32;;;7.50;;
15655;SDS011;7928;43.614;1.456;2022-12-07T14:55:12;8.13;;;6.80;;
15655;SDS011;7928;43.614;1.456;2022-12-07T14:57:41;8.97;;;7.67;;
15655;SDS011;7928;43.614;1.456;2022-12-07T15:00:13;8.17;;;7.17;;
15655;SDS011;7928;43.614;1.456;2022-12-07T15:02:42;7.37;;;6.07;;
15655;SDS011;7928;43.614;1.456;2022-12-07T15:05:09;6.83;;;6.00;;
15655;SDS011;7928;43.614;1.456;2022-12-07T15:07:36;7.27;;;6.53;;
15655;SDS011;7928;43.614;1.456;2022-12-07T15:10:04;6.93;;;5.07;;
15655;SDS011;7928;43.614;1.456;2022-12-07T15:12:33;6.53;;;5.27;;
15655;SDS011;7928;43.614;1.456;2022-12-07T15:15:00;5.40;;;4.73;;
15655;SDS011;7928;43.614;1.456;2022-12-07T15:17:29;6.37;;;5.20;;
15655;SDS011;7928;43.614;1.456;2022-12-07T15:19:56;7.30;;;5.70;;
15655;SDS011;7928;43.614;1.456;2022-12-07T15:22:23;12.60;;;6.17;;
15655;SDS011;7928;43.614;1.456;2022-12-07T15:24:50;7.20;;;5.90;;
15655;SDS011;7928;43.614;1.456;2022-12-07T15:27:17;7.47;;;5.27;;
15655;SDS011;7928;43.614;1.456;2022-12-07T15:29:44;9.50;;;5.50;;
15655;SDS011;7928;43.614;1.456;2022-12-07T15:32:11;8.07;;;5.50;;
15655;SDS011;7928;43.614;1.456;2022-12-07T15:34:40;8.03;;;5.47;;
15655;SDS011;7928;43.614;1.456;2022-12-07T15:37:07;12.33;;;7.70;;